Date,TemperatureHighF,TemperatureAvgF,TemperatureLowF,DewpointHighF,DewpointAvgF,DewpointLowF,HumidityHigh,HumidityAvg,HumidityLow,PressureMaxIn,PressureMinIn,WindSpeedMaxMPH,WindSpeedAvgMPH,GustSpeedMaxMPH,PrecipitationSumIn
2013-1-1,29.8,24.8,9.2,24.2,13.6,-1.1,82,63,43,29.79,29.51,28,6,32,0.00
2013-1-2,24.5,13.3,0.7,8.6,-1.7,-11.5,71,51,37,29.97,29.77,30,5,33,0.00
2013-1-3,22.5,11.6,-0.2,2.1,-0.9,-9.5,70,57,38,30.03,29.85,14,2,19,0.00
2013-1-4,34.6,24.4,10.5,22.4,16.1,1.1,87,71,57,29.85,29.64,25,3,25,0.01
2013-1-5,35.0,27.2,19.9,24.4,16.1,9.5,80,63,40,30.15,29.65,22,4,24,0.00
2013-1-6,36.0,25.8,18.3,24.9,18.5,10.7,81,73,60,30.11,29.82,14,1,14,0.00
2013-1-7,34.1,26.1,17.8,26.4,17.0,7.1,89,69,47,30.29,29.83,12,1,13,0.00
2013-1-8,42.1,29.1,18.0,22.1,17.5,9.0,82,63,43,30.25,30.11,13,1,18,0.01
2013-1-9,37.9,31.9,25.8,27.8,23.2,19.2,79,70,60,30.31,29.83,24,1,24,0.02
2013-1-10,43.2,36.0,27.8,31.5,24.1,19.4,90,63,45,30.42,29.83,26,6,28,0.03
2013-1-11,37.9,31.1,25.3,30.9,22.6,17.8,93,72,45,30.42,30.13,6,0,7,0.09
2013-1-12,39.9,35.9,32.5,38.8,34.8,30.9,99,96,93,30.14,30.01,7,0,7,0.08
2013-1-13,42.8,38.4,35.5,42.8,38.4,35.5,100,100,98,30.05,29.85,11,0,11,0.01
2013-1-14,55.4,42.8,33.5,52.0,37.0,23.2,100,82,55,30.11,29.75,18,2,22,0.00
2013-1-15,39.6,32.1,28.2,25.2,21.3,17.2,80,65,46,30.21,30.10,12,0,13,0.00
2013-1-16,29.4,27.4,25.8,26.6,23.3,18.3,93,85,66,30.16,29.69,5,0,6,0.00
2013-1-17,38.8,27.2,17.2,29.4,19.5,-0.7,93,74,46,30.01,29.69,18,2,22,0.23
2013-1-18,17.7,12.7,5.2,0.7,-7.4,-14.4,59,40,27,30.32,29.96,24,2,24,0.00
2013-1-19,12.3,12.1,12.1,0.5,0.5,0.2,59,59,59,30.25,30.25,2,1,3,0.00
2013-1-20,44.9,32.7,20.8,30.8,15.1,0.3,82,49,35,29.75,29.35,34,10,36,0.02
2013-1-21,26.3,18.5,11.9,12.4,1.6,-4.9,85,49,29,29.95,29.72,22,3,25,0.00
2013-1-22,24.7,13.6,3.5,12.5,3.1,-10.2,85,64,31,29.93,29.67,21,2,22,0.00
2013-1-23,5.2,0.5,-3.7,-10.2,-17.9,-22.8,60,42,28,30.03,29.92,20,5,22,0.00
2013-1-24,10.2,2.0,-6.3,-11.4,-16.5,-20.9,51,41,29,30.06,29.90,29,7,29,0.00
2013-1-25,17.2,9.1,1.5,-3.7,-7.6,-12.2,58,46,33,30.15,29.96,21,4,21,0.00
2013-1-26,23.6,10.8,6.9,-0.7,-5.4,-10.3,61,48,23,30.06,29.89,16,2,17,0.00
2013-1-27,23.9,14.5,6.9,0.5,-3.7,-7.1,60,45,31,30.27,30.05,20,4,20,0.00
2013-1-28,23.9,17.0,11.2,14.9,2.2,-10.8,86,55,29,30.33,29.97,2,0,11,0.00
2013-1-29,35.5,28.8,16.5,28.6,25.7,13.1,92,88,68,30.10,29.97,3,0,8,0.16
2013-1-30,52.2,39.1,30.6,52.2,38.5,28.6,100,98,92,30.04,29.31,14,1,16,0.45
2013-1-31,54.8,42.1,24.8,54.8,33.8,8.2,100,75,42,29.37,28.72,35,10,38,0.46